createdAt,value
2018-02-08T00:01:23.108Z,24.60
2018-02-08T00:03:50.774Z,24.73
2018-02-08T00:06:18.344Z,24.40
2018-02-08T00:08:45.897Z,25.63
2018-02-08T00:11:13.627Z,24.07
2018-02-08T00:13:41.189Z,24.87
2018-02-08T00:16:08.744Z,26.87
2018-02-08T00:18:36.490Z,26.30
2018-02-08T00:21:04.046Z,26.80
2018-02-08T00:23:31.647Z,27.27
2018-02-08T00:25:59.203Z,23.57
2018-02-08T00:28:26.742Z,21.30
2018-02-08T00:30:54.312Z,24.17
2018-02-08T00:33:21.888Z,23.13
2018-02-08T00:35:49.517Z,21.43
2018-02-08T00:38:17.074Z,22.63
2018-02-08T00:40:44.736Z,23.10
2018-02-08T00:43:12.301Z,25.53
2018-02-08T00:45:39.856Z,24.47
2018-02-08T00:48:07.421Z,24.40
2018-02-08T00:50:35.001Z,26.50
2018-02-08T00:53:02.539Z,26.67
2018-02-08T00:55:30.097Z,24.27
2018-02-08T00:57:57.651Z,24.87
2018-02-08T01:00:25.235Z,24.03
2018-02-08T01:02:52.780Z,23.53
2018-02-08T01:05:20.610Z,24.60
2018-02-08T01:07:48.323Z,19.83
2018-02-08T01:10:15.879Z,21.17
2018-02-08T01:12:43.446Z,21.47
2018-02-08T01:15:11.172Z,21.73
2018-02-08T01:17:38.748Z,24.50
2018-02-08T01:20:06.534Z,24.83
2018-02-08T01:22:34.354Z,25.13
2018-02-08T01:25:01.927Z,25.33
2018-02-08T01:27:29.481Z,26.10
2018-02-08T01:29:57.206Z,26.07
2018-02-08T01:32:24.766Z,28.07
2018-02-08T01:34:52.542Z,26.90
2018-02-08T01:37:20.262Z,28.03
2018-02-08T01:39:47.979Z,29.00
2018-02-08T01:42:15.558Z,26.90
2018-02-08T01:44:43.185Z,27.87
2018-02-08T01:47:10.804Z,25.93
2018-02-08T01:49:46.575Z,29.47
2018-02-08T01:52:14.598Z,27.13
2018-02-08T01:54:42.154Z,26.23
2018-02-08T01:57:09.709Z,27.30
2018-02-08T01:59:37.267Z,26.57
2018-02-08T02:02:04.829Z,24.07
2018-02-08T02:04:32.393Z,23.40
2018-02-08T02:06:59.947Z,23.30
2018-02-08T02:09:27.557Z,23.37
2018-02-08T02:11:55.341Z,24.40
2018-02-08T02:14:23.038Z,23.10
2018-02-08T02:16:50.598Z,23.37
2018-02-08T02:19:18.188Z,22.50
2018-02-08T02:21:46.016Z,24.43
2018-02-08T02:24:13.585Z,23.00
2018-02-08T02:26:41.258Z,24.80
2018-02-08T02:29:09.067Z,23.53
2018-02-08T02:31:36.639Z,23.77
2018-02-08T02:34:04.218Z,23.57
2018-02-08T02:36:31.778Z,24.27
2018-02-08T02:38:59.356Z,24.77
2018-02-08T02:41:27.158Z,21.77
2018-02-08T02:43:54.799Z,21.57
2018-02-08T02:46:22.593Z,21.70
2018-02-08T02:48:50.155Z,22.90
2018-02-08T02:51:17.721Z,21.17
2018-02-08T02:53:45.421Z,21.17
2018-02-08T02:56:12.989Z,20.37
2018-02-08T02:58:40.694Z,20.97
2018-02-08T03:01:08.320Z,22.40
2018-02-08T03:03:36.034Z,21.77
2018-02-08T03:06:03.839Z,23.40
2018-02-08T03:08:31.397Z,23.53
2018-02-08T03:10:59.173Z,27.43
2018-02-08T03:13:26.738Z,25.67
2018-02-08T03:15:54.404Z,23.37
2018-02-08T03:18:22.017Z,24.63
2018-02-08T03:20:49.569Z,24.20
2018-02-08T03:23:17.125Z,25.73
2018-02-08T03:25:44.879Z,26.50
2018-02-08T03:28:12.437Z,29.10
2018-02-08T03:33:42.200Z,26.63
2018-02-08T03:36:10.022Z,26.33
2018-02-08T03:38:37.583Z,27.40
2018-02-08T03:41:05.145Z,24.17
2018-02-08T03:43:32.714Z,24.93
2018-02-08T03:46:00.295Z,25.53
2018-02-08T03:48:27.870Z,23.70
2018-02-08T03:50:55.425Z,25.73
2018-02-08T03:53:23.256Z,26.87
2018-02-08T03:55:51.017Z,27.47
2018-02-08T03:58:18.573Z,26.33
2018-02-08T04:00:46.133Z,26.63
2018-02-08T04:03:13.970Z,23.67
2018-02-08T04:05:41.663Z,24.47
2018-02-08T04:08:09.509Z,26.03
2018-02-08T04:10:37.326Z,24.23
2018-02-08T04:13:04.985Z,24.97
2018-02-08T04:15:32.541Z,27.30
2018-02-08T04:18:00.109Z,40.90
2018-02-08T04:20:27.897Z,35.83
2018-02-08T04:22:55.465Z,29.77
2018-02-08T04:25:23.024Z,28.43
2018-02-08T04:27:50.852Z,26.30
2018-02-08T04:30:18.573Z,33.63
2018-02-08T04:32:46.125Z,27.83
2018-02-08T04:35:13.695Z,26.83
2018-02-08T04:37:41.425Z,30.77
2018-02-08T04:40:20.870Z,23.73
2018-02-08T04:43:00.269Z,22.17
2018-02-08T04:45:39.653Z,22.77
2018-02-08T04:48:08.302Z,21.50
2018-02-08T04:50:36.143Z,20.70
2018-02-08T04:53:03.859Z,20.07
2018-02-08T04:55:31.778Z,26.47
2018-02-08T04:57:59.496Z,21.30
2018-02-08T05:00:27.049Z,19.30
2018-02-08T05:02:57.254Z,23.13
2018-02-08T05:05:24.828Z,23.13
2018-02-08T05:07:52.677Z,24.40
2018-02-08T05:10:20.236Z,25.27
2018-02-08T05:12:47.922Z,25.57
2018-02-08T05:15:15.732Z,25.83
2018-02-08T05:17:43.354Z,31.93
2018-02-08T05:20:10.974Z,27.03
2018-02-08T05:22:38.612Z,23.37
2018-02-08T05:25:06.174Z,23.70
2018-02-08T05:27:33.922Z,25.13
2018-02-08T05:30:01.484Z,25.37
2018-02-08T05:32:29.205Z,25.50
2018-02-08T05:34:56.763Z,27.83
2018-02-08T05:37:24.493Z,25.67
2018-02-08T05:39:52.314Z,28.77
2018-02-08T05:42:20.035Z,27.27
2018-02-08T05:44:47.611Z,26.70
2018-02-08T05:47:15.173Z,32.43
2018-02-08T05:49:42.898Z,29.47
2018-02-08T05:52:10.480Z,31.93
2018-02-08T05:54:38.077Z,33.73
2018-02-08T05:57:05.838Z,26.03
2018-02-08T05:59:33.650Z,26.03
2018-02-08T06:02:01.214Z,23.57
2018-02-08T06:04:28.773Z,25.60
2018-02-08T06:06:56.401Z,26.13
2018-02-08T06:09:23.970Z,29.80
2018-02-08T06:11:51.535Z,28.10
2018-02-08T06:14:19.126Z,28.33
2018-02-08T06:16:46.846Z,25.37
2018-02-08T06:19:14.405Z,24.80
2018-02-08T06:21:41.981Z,23.37
2018-02-08T06:24:09.542Z,22.73
2018-02-08T06:26:37.133Z,23.23
2018-02-08T06:29:04.855Z,27.03
2018-02-08T06:31:32.405Z,21.63
2018-02-08T06:34:00.205Z,22.00
2018-02-08T06:36:27.903Z,21.43
2018-02-08T06:38:55.466Z,21.57
2018-02-08T06:41:23.034Z,21.73
2018-02-08T06:43:50.590Z,27.77
2018-02-08T06:46:18.185Z,29.03
2018-02-08T06:48:45.909Z,27.80
2018-02-08T06:51:13.469Z,23.40
2018-02-08T06:53:41.249Z,26.13
2018-02-08T06:56:08.832Z,21.40
2018-02-08T06:58:36.401Z,21.40
2018-02-08T07:01:03.975Z,18.73
2018-02-08T07:03:31.533Z,16.47
2018-02-08T07:05:59.089Z,14.87
2018-02-08T07:08:26.657Z,20.27
2018-02-08T07:10:54.555Z,13.40
2018-02-08T07:13:22.119Z,12.40
2018-02-08T07:15:49.916Z,11.17
2018-02-08T07:18:17.488Z,15.27
2018-02-08T07:20:45.161Z,16.33
2018-02-08T07:23:12.722Z,16.53
2018-02-08T07:25:40.454Z,18.63
2018-02-08T07:28:08.017Z,15.23
2018-02-08T07:30:35.562Z,11.63
2018-02-08T07:33:03.134Z,13.30
2018-02-08T07:35:30.767Z,13.60
2018-02-08T07:37:58.326Z,13.47
2018-02-08T07:40:25.902Z,13.83
2018-02-08T07:42:53.706Z,15.27
2018-02-08T07:45:21.525Z,16.20
2018-02-08T07:47:49.155Z,12.77
2018-02-08T07:50:16.962Z,19.87
2018-02-08T07:52:44.710Z,15.50
2018-02-08T07:55:12.269Z,15.97
2018-02-08T07:57:39.842Z,21.63
2018-02-08T08:00:07.538Z,64.10
2018-02-08T08:02:35.079Z,41.23
2018-02-08T08:05:02.654Z,31.30
2018-02-08T08:07:30.389Z,123.97
2018-02-08T08:09:57.991Z,39.77
2018-02-08T08:12:25.724Z,21.50
2018-02-08T08:14:53.286Z,14.73
2018-02-08T08:17:20.983Z,13.87
2018-02-08T08:19:48.545Z,13.40
2018-02-08T08:22:16.259Z,13.97
2018-02-08T08:24:44.013Z,13.00
2018-02-08T08:27:11.831Z,42.07
2018-02-08T08:29:39.650Z,25.73
2018-02-08T08:32:07.238Z,14.43
2018-02-08T08:34:34.986Z,13.33
2018-02-08T08:37:02.552Z,14.57
2018-02-08T08:39:30.112Z,15.43
2018-02-08T08:41:57.836Z,15.13
2018-02-08T08:44:25.407Z,12.90
2018-02-08T08:46:53.176Z,12.93
2018-02-08T08:49:20.894Z,12.77
2018-02-08T08:51:48.461Z,11.30
2018-02-08T08:54:16.232Z,11.33
2018-02-08T08:56:43.793Z,11.60
2018-02-08T08:59:11.361Z,11.63
2018-02-08T09:01:38.934Z,12.20
2018-02-08T09:04:06.702Z,12.07
2018-02-08T09:06:34.521Z,11.43
2018-02-08T09:09:02.095Z,11.03
2018-02-08T09:11:29.857Z,12.67
2018-02-08T09:13:57.418Z,12.50
2018-02-08T09:16:24.978Z,12.30
2018-02-08T09:18:52.554Z,12.13
2018-02-08T09:21:20.173Z,12.63
2018-02-08T09:23:47.743Z,11.90
2018-02-08T09:26:15.322Z,12.37
2018-02-08T09:28:42.896Z,13.43
2018-02-08T09:31:10.470Z,12.33
2018-02-08T09:33:38.040Z,12.43
2018-02-08T09:36:05.624Z,12.63
2018-02-08T09:38:33.198Z,12.10
2018-02-08T09:41:00.760Z,12.30
2018-02-08T09:43:28.587Z,12.77
2018-02-08T09:45:56.154Z,11.60
2018-02-08T09:48:23.708Z,14.13
2018-02-08T09:50:51.440Z,18.00
2018-02-08T09:53:18.999Z,11.67
2018-02-08T09:55:46.738Z,12.73
2018-02-08T09:58:14.455Z,11.60
2018-02-08T10:00:42.027Z,10.23
2018-02-08T10:03:09.594Z,12.47
2018-02-08T10:05:37.348Z,13.13
2018-02-08T10:08:04.930Z,12.37
2018-02-08T10:10:32.524Z,11.80
2018-02-08T10:13:00.098Z,11.40
2018-02-08T10:15:27.812Z,12.80
2018-02-08T10:17:55.417Z,13.43
2018-02-08T10:20:22.993Z,11.60
2018-02-08T10:22:50.582Z,11.93
2018-02-08T10:25:18.188Z,11.37
2018-02-08T10:27:46.010Z,12.37
2018-02-08T10:30:13.607Z,14.97
2018-02-08T10:32:41.174Z,12.80
2018-02-08T10:35:08.964Z,11.57
2018-02-08T10:37:36.786Z,9.67
2018-02-08T10:40:04.601Z,11.63
2018-02-08T10:42:32.419Z,11.00
2018-02-08T10:45:00.238Z,29.40
2018-02-08T10:47:27.818Z,13.33
2018-02-08T10:49:55.556Z,10.20
2018-02-08T10:52:23.124Z,9.97
2018-02-08T10:54:50.910Z,9.23
2018-02-08T10:57:18.511Z,9.53
2018-02-08T10:59:46.076Z,11.23
2018-02-08T11:02:13.630Z,10.97
2018-02-08T11:04:41.178Z,9.63
2018-02-08T11:07:08.749Z,9.53
2018-02-08T11:09:36.323Z,9.47
2018-02-08T11:12:03.896Z,10.73
2018-02-08T11:14:31.466Z,10.77
2018-02-08T11:16:59.031Z,10.10
2018-02-08T11:19:26.626Z,9.93
2018-02-08T11:21:54.193Z,9.50
2018-02-08T11:24:21.750Z,9.67
2018-02-08T11:26:49.318Z,9.93
2018-02-08T11:29:17.159Z,11.73
2018-02-08T11:31:44.890Z,13.23
2018-02-08T11:34:12.696Z,9.90
2018-02-08T11:36:40.304Z,9.97
2018-02-08T11:39:07.877Z,18.67
2018-02-08T11:41:35.442Z,15.37
2018-02-08T11:44:03.049Z,12.00
2018-02-08T11:46:30.765Z,13.20
2018-02-08T11:48:58.346Z,10.90
2018-02-08T11:51:26.125Z,10.70
2018-02-08T11:53:53.691Z,10.57
2018-02-08T11:56:21.449Z,10.40
2018-02-08T11:58:49.066Z,10.67
2018-02-08T12:01:16.622Z,11.73
2018-02-08T12:03:44.305Z,11.53
2018-02-08T12:06:11.871Z,10.77
2018-02-08T12:08:39.647Z,10.60
2018-02-08T12:11:07.214Z,13.17
2018-02-08T12:13:34.830Z,32.87
2018-02-08T12:16:02.492Z,17.33
2018-02-08T12:18:30.220Z,18.10
2018-02-08T12:20:57.917Z,13.13
2018-02-08T12:23:25.477Z,10.47
2018-02-08T12:25:53.045Z,10.57
2018-02-08T12:28:20.775Z,10.30
2018-02-08T12:30:48.609Z,10.63
2018-02-08T12:33:16.260Z,11.33
2018-02-08T12:35:43.821Z,9.43
2018-02-08T12:38:11.618Z,9.50
2018-02-08T12:40:39.386Z,11.53
2018-02-08T12:43:06.953Z,11.10
2018-02-08T12:45:34.514Z,11.43
2018-02-08T12:48:02.335Z,10.43
2018-02-08T12:50:29.946Z,11.30
2018-02-08T12:52:57.505Z,10.13
2018-02-08T12:55:25.290Z,10.93
2018-02-08T12:57:53.108Z,12.17
2018-02-08T13:00:21.028Z,11.37
2018-02-08T13:02:48.847Z,13.20
2018-02-08T13:05:16.765Z,11.90
2018-02-08T13:07:44.373Z,12.97
2018-02-08T13:10:12.193Z,12.60
2018-02-08T13:12:39.806Z,13.73
2018-02-08T13:15:07.518Z,11.73
2018-02-08T13:17:35.234Z,14.30
2018-02-08T13:20:02.965Z,14.37
2018-02-08T13:22:30.582Z,14.70
2018-02-08T13:24:58.131Z,16.03
2018-02-08T13:27:25.690Z,16.10
2018-02-08T13:29:53.264Z,16.60
2018-02-08T13:32:20.857Z,16.17
2018-02-08T13:34:48.681Z,16.87
2018-02-08T13:37:16.499Z,15.80
2018-02-08T13:39:44.150Z,15.97
2018-02-08T13:42:14.701Z,15.13
2018-02-08T13:44:42.261Z,17.33
2018-02-08T13:47:10.483Z,16.70
2018-02-08T13:49:40.595Z,16.73
2018-02-08T13:52:27.997Z,17.03
2018-02-08T13:55:00.946Z,16.23
2018-02-08T13:57:28.563Z,17.37
2018-02-08T14:00:00.877Z,18.03
2018-02-08T14:02:28.481Z,18.07
2018-02-08T14:04:56.046Z,18.40
2018-02-08T14:07:23.618Z,18.30
2018-02-08T14:09:51.357Z,19.00
2018-02-08T14:12:19.176Z,22.83
2018-02-08T14:14:46.718Z,26.87
2018-02-08T14:17:14.282Z,23.00
2018-02-08T14:19:42.000Z,41.60
2018-02-08T14:22:09.717Z,23.20
2018-02-08T14:24:37.668Z,33.23
2018-02-08T14:27:05.488Z,23.43
2018-02-08T14:29:33.119Z,20.50
2018-02-08T14:32:00.675Z,22.50
2018-02-08T14:34:28.230Z,23.13
2018-02-08T14:36:55.861Z,24.47
2018-02-08T14:39:23.677Z,27.13
2018-02-08T14:41:51.494Z,33.13
2018-02-08T14:44:19.117Z,97.13
2018-02-08T14:46:46.931Z,37.07
2018-02-08T14:49:14.497Z,39.13
2018-02-08T14:51:42.056Z,28.23
2018-02-08T14:54:09.885Z,28.20
2018-02-08T14:56:37.702Z,36.70
2018-02-08T14:59:05.521Z,41.97
2018-02-08T15:01:33.340Z,36.90
2018-02-08T15:04:01.059Z,29.23
2018-02-08T15:06:28.636Z,31.90
2018-02-08T15:08:56.394Z,36.43
2018-02-08T15:11:23.977Z,47.13
2018-02-08T15:13:51.542Z,48.17
2018-02-08T15:16:19.102Z,30.80
2018-02-08T15:18:46.847Z,29.77
2018-02-08T15:21:14.404Z,42.97
2018-02-08T15:23:41.993Z,32.97
2018-02-08T15:26:10.924Z,29.10
2018-02-08T15:28:38.570Z,31.63
2018-02-08T15:31:06.414Z,45.93
2018-02-08T15:33:33.968Z,37.73
2018-02-08T15:36:01.704Z,91.53
2018-02-08T15:38:29.572Z,114.37
2018-02-08T15:40:57.277Z,64.57
2018-02-08T15:43:24.833Z,49.00
2018-02-08T15:45:52.379Z,45.47
2018-02-08T15:48:19.937Z,37.23
2018-02-08T15:50:47.685Z,55.30
2018-02-08T15:53:15.254Z,72.43
2018-02-08T15:55:43.043Z,31.90
2018-02-08T15:58:10.760Z,29.70
2018-02-08T16:00:38.580Z,51.53
2018-02-08T16:03:06.202Z,38.47
2018-02-08T16:05:33.913Z,40.23
2018-02-08T16:08:01.735Z,32.20
2018-02-08T16:10:29.306Z,39.77
2018-02-08T16:12:56.878Z,51.93
2018-02-08T16:15:24.442Z,37.47
2018-02-08T16:17:52.088Z,51.67
2018-02-08T16:20:19.677Z,36.17
2018-02-08T16:22:47.275Z,35.80
2018-02-08T16:25:15.057Z,41.77
2018-02-08T16:27:42.660Z,39.33
2018-02-08T16:30:10.436Z,208.83
2018-02-08T16:32:38.212Z,103.77
2018-02-08T16:35:05.826Z,37.23
2018-02-08T16:37:33.446Z,47.23
2018-02-08T16:40:01.007Z,41.97
2018-02-08T16:42:28.565Z,46.67
2018-02-08T16:44:56.133Z,73.77
2018-02-08T16:47:23.700Z,153.30
2018-02-08T16:49:51.277Z,81.50
2018-02-08T16:52:18.946Z,103.20
2018-02-08T16:54:46.563Z,104.60
2018-02-08T16:57:14.139Z,101.60
2018-02-08T16:59:41.739Z,41.10
2018-02-08T17:02:09.315Z,40.17
2018-02-08T17:04:37.146Z,337.13
2018-02-08T17:07:04.753Z,46.73
2018-02-08T17:09:32.493Z,48.47
2018-02-08T17:12:00.399Z,48.40
2018-02-08T17:14:28.220Z,43.23
2018-02-08T17:16:55.933Z,39.83
2018-02-08T17:19:23.654Z,49.23
2018-02-08T17:21:51.245Z,96.17
2018-02-08T17:24:18.961Z,66.00
2018-02-08T17:26:46.694Z,52.73
2018-02-08T17:29:14.438Z,61.73
2018-02-08T17:31:42.010Z,61.37
2018-02-08T17:34:09.680Z,60.20
2018-02-08T17:36:37.373Z,227.27
2018-02-08T17:39:05.018Z,213.30
2018-02-08T17:41:32.566Z,183.53
2018-02-08T17:44:00.129Z,127.90
2018-02-08T17:46:27.742Z,180.80
2018-02-08T17:48:55.309Z,65.70
2018-02-08T17:51:22.870Z,58.83
2018-02-08T17:53:50.579Z,42.60
2018-02-08T17:56:18.211Z,49.27
2018-02-08T17:58:45.932Z,53.30
2018-02-08T18:01:13.762Z,44.17
2018-02-08T18:03:41.327Z,54.83
2018-02-08T18:06:08.886Z,50.10
2018-02-08T18:08:36.461Z,53.50
2018-02-08T18:11:04.127Z,44.57
2018-02-08T18:13:31.746Z,54.90
2018-02-08T18:15:59.396Z,56.83
2018-02-08T18:18:27.190Z,50.97
2018-02-08T18:20:55.009Z,94.73
2018-02-08T18:23:22.824Z,82.53
2018-02-08T18:25:50.417Z,91.77
2018-02-08T18:28:18.009Z,100.93
2018-02-08T18:30:45.668Z,79.23
2018-02-08T18:33:13.366Z,61.23
2018-02-08T18:35:40.938Z,62.20
2018-02-08T18:38:08.729Z,75.70
2018-02-08T18:40:36.327Z,86.00
2018-02-08T18:43:03.951Z,117.27
2018-02-08T18:45:31.534Z,115.17
2018-02-08T18:47:59.192Z,99.40
2018-02-08T18:50:26.814Z,88.50
2018-02-08T18:52:54.524Z,92.97
2018-02-08T18:55:22.118Z,77.83
2018-02-08T18:57:49.687Z,73.23
2018-02-08T19:00:17.262Z,76.53
2018-02-08T19:02:44.901Z,66.53
2018-02-08T19:05:12.726Z,77.43
2018-02-08T19:07:40.292Z,87.97
2018-02-08T19:10:07.850Z,82.17
2018-02-08T19:12:35.582Z,92.97
2018-02-08T19:15:03.151Z,65.07
2018-02-08T19:17:30.807Z,61.07
2018-02-08T19:19:58.382Z,67.00
2018-02-08T19:22:26.000Z,58.63
2018-02-08T19:24:53.737Z,60.43
2018-02-08T19:27:21.325Z,61.20
2018-02-08T19:29:48.902Z,65.67
2018-02-08T19:32:16.470Z,64.83
2018-02-08T19:34:44.201Z,64.90
2018-02-08T19:37:11.770Z,62.00
2018-02-08T19:39:39.578Z,64.80
2018-02-08T19:42:07.214Z,67.07
2018-02-08T19:44:35.015Z,81.77
2018-02-08T19:47:02.634Z,73.43
2018-02-08T19:49:30.212Z,72.67
2018-02-08T19:51:57.858Z,81.33
2018-02-08T19:54:25.586Z,65.23
2018-02-08T19:56:53.422Z,60.63
2018-02-08T19:59:21.029Z,45.60
2018-02-08T20:01:48.599Z,78.90
2018-02-08T20:04:16.158Z,77.83
2018-02-08T20:06:43.725Z,68.40
2018-02-08T20:09:11.496Z,80.80
2018-02-08T20:11:39.203Z,75.93
2018-02-08T20:14:12.303Z,61.83
2018-02-08T20:16:39.959Z,68.73
2018-02-08T20:19:07.572Z,75.20
2018-02-08T20:21:35.214Z,78.10
2018-02-08T20:24:02.794Z,88.33
2018-02-08T20:26:30.540Z,47.57
2018-02-08T20:28:58.557Z,38.17
2018-02-08T20:31:28.183Z,42.70
2018-02-08T20:33:55.756Z,81.97
2018-02-08T20:36:23.322Z,88.37
2018-02-08T20:38:51.137Z,45.37
2018-02-08T20:41:18.770Z,31.13
2018-02-08T20:43:46.337Z,28.87
2018-02-08T20:46:14.001Z,33.10
2018-02-08T20:48:41.599Z,31.57
2018-02-08T20:51:09.305Z,32.23
2018-02-08T20:53:37.222Z,32.90
2018-02-08T20:56:04.786Z,31.10
2018-02-08T20:58:32.374Z,30.37
2018-02-08T21:01:00.067Z,29.53
2018-02-08T21:03:27.819Z,39.13
2018-02-08T21:05:55.536Z,30.17
2018-02-08T21:08:23.114Z,30.10
2018-02-08T21:10:50.663Z,30.60
2018-02-08T21:13:18.271Z,29.87
2018-02-08T21:15:45.834Z,29.53
2018-02-08T21:18:13.391Z,31.50
2018-02-08T21:20:41.246Z,33.97
2018-02-08T21:23:08.963Z,28.43
2018-02-08T21:25:36.780Z,28.20
2018-02-08T21:28:04.604Z,26.93
2018-02-08T21:30:32.417Z,27.97
2018-02-08T21:32:59.986Z,27.47
2018-02-08T21:35:27.647Z,27.83
2018-02-08T21:37:55.281Z,29.93
2018-02-08T21:40:23.089Z,31.40
2018-02-08T21:42:50.654Z,28.60
2018-02-08T21:45:18.238Z,28.13
2018-02-08T21:47:45.943Z,31.13
2018-02-08T21:50:13.762Z,28.20
2018-02-08T21:52:41.400Z,28.70
2018-02-08T21:55:08.968Z,29.67
2018-02-08T21:57:36.716Z,28.53
2018-02-08T22:00:04.320Z,27.83
2018-02-08T22:02:31.893Z,27.97
2018-02-08T22:04:59.697Z,29.60
2018-02-08T22:07:27.516Z,32.97
2018-02-08T22:09:55.219Z,34.37
2018-02-08T22:12:22.793Z,29.00
2018-02-08T22:14:50.672Z,29.33
2018-02-08T22:17:18.274Z,32.13
2018-02-08T22:19:45.831Z,33.33
2018-02-08T22:22:13.403Z,33.37
2018-02-08T22:24:40.961Z,33.77
2018-02-08T22:27:08.738Z,36.20
2018-02-08T22:29:36.293Z,37.37
2018-02-08T22:32:04.099Z,38.17
2018-02-08T22:34:31.657Z,35.27
2018-02-08T22:36:59.219Z,34.77
2018-02-08T22:39:26.951Z,38.43
2018-02-08T22:41:54.586Z,35.83
2018-02-08T22:44:22.154Z,34.83
2018-02-08T22:46:49.721Z,35.97
2018-02-08T22:49:17.282Z,35.97
2018-02-08T22:51:44.873Z,36.47
2018-02-08T22:54:12.642Z,35.73
2018-02-08T22:56:40.223Z,33.73
2018-02-08T22:59:07.794Z,37.00
2018-02-08T23:01:35.548Z,35.87
2018-02-08T23:04:03.329Z,38.33
2018-02-08T23:06:30.910Z,36.17
2018-02-08T23:08:58.497Z,37.33
2018-02-08T23:11:26.065Z,36.43
2018-02-08T23:13:53.629Z,35.20
2018-02-08T23:16:21.229Z,31.27
2018-02-08T23:18:48.783Z,32.10
2018-02-08T23:21:16.346Z,32.57
2018-02-08T23:23:44.071Z,33.93
2018-02-08T23:26:11.648Z,32.00
2018-02-08T23:28:39.250Z,32.33
2018-02-08T23:31:06.810Z,31.53
2018-02-08T23:33:34.391Z,31.20
2018-02-08T23:36:01.954Z,31.13
2018-02-08T23:38:29.518Z,33.53
2018-02-08T23:40:57.188Z,34.97
2018-02-08T23:43:24.738Z,33.10
2018-02-08T23:45:52.532Z,31.83
2018-02-08T23:48:20.163Z,34.07
2018-02-08T23:50:47.738Z,31.30
2018-02-08T23:53:15.293Z,33.40
2018-02-08T23:55:42.889Z,29.10
2018-02-08T23:58:10.621Z,27.63
